Time;durP1;ratioP1;P1;durP2;ratioP2;P2;SDS_P1;SDS_P2;PMS_P1;PMS_P2;Temp;Humidity;BMP_temperature;BMP_pressure;BME280_temperature;BME280_humidity;BME280_pressure;Samples;Min_cycle;Max_cycle;Signal;HPM_P1;HPM_P2
2022/05/24 00:00:26;;;;;;;8.90;7.15;;;6.70;99.90;;;;;;4909173;29;20056;-88
2022/05/24 00:02:54;;;;;;;7.57;6.60;;;6.70;99.90;;;;;;4907996;29;20071;-89
2022/05/24 00:05:22;;;;;;;12.70;7.35;;;6.70;99.90;;;;;;4893319;29;20079;-89
2022/05/24 00:07:50;;;;;;;8.57;7.43;;;6.80;99.90;;;;;;4912097;29;20065;-89
2022/05/24 00:10:28;;;;;;;11.90;7.32;;;6.70;99.90;;;;;;4908263;29;20055;-88
2022/05/24 00:12:56;;;;;;;10.27;7.50;;;6.80;99.90;;;;;;4910750;29;20575;-88
2022/05/24 00:15:27;;;;;;;10.90;8.07;;;6.70;99.90;;;;;;4926052;28;20397;-89
2022/05/24 00:18:19;;;;;;;11.07;7.47;;;6.70;99.90;;;;;;4931928;28;20046;-89
2022/05/24 00:20:49;;;;;;;12.73;8.20;;;6.80;99.90;;;;;;4920015;28;20061;-89
2022/05/24 00:23:18;;;;;;;9.98;7.18;;;6.70;99.90;;;;;;4943351;28;20122;-89
2022/05/24 00:25:48;;;;;;;12.23;7.22;;;6.80;99.90;;;;;;4916670;28;20078;-89
2022/05/24 00:28:16;;;;;;;9.20;7.18;;;6.70;99.90;;;;;;4956461;28;20051;-88
2022/05/24 00:30:45;;;;;;;9.63;7.90;;;6.80;99.90;;;;;;4950174;28;20062;-88
2022/05/24 00:33:13;;;;;;;10.70;7.88;;;6.80;99.90;;;;;;4927199;28;20094;-88
2022/05/24 00:35:40;;;;;;;9.57;7.43;;;6.80;99.90;;;;;;4934190;29;20055;-88
2022/05/24 00:38:10;;;;;;;9.43;7.93;;;6.80;99.90;;;;;;4927400;29;20047;-88
2022/05/24 00:40:45;;;;;;;16.23;11.55;;;6.80;99.90;;;;;;4947447;28;20051;-88
2022/05/24 00:43:33;;;;;;;12.63;9.20;;;6.80;99.90;;;;;;4942625;28;20504;-88
2022/05/24 00:46:06;;;;;;;16.20;9.85;;;6.80;99.90;;;;;;4930943;29;20146;-88
2022/05/24 00:48:43;;;;;;;11.45;9.55;;;6.80;99.90;;;;;;4928305;29;20055;-89
2022/05/24 00:51:13;;;;;;;13.80;10.00;;;6.80;99.90;;;;;;4911020;29;20079;-88
2022/05/24 00:53:50;;;;;;;10.60;9.45;;;6.80;99.90;;;;;;4922306;28;20523;-88
2022/05/24 00:56:25;;;;;;;11.52;9.85;;;6.70;99.90;;;;;;4941709;28;20584;-88
2022/05/24 00:58:58;;;;;;;17.55;11.77;;;6.80;99.90;;;;;;4929383;29;20057;-88
2022/05/24 01:01:47;;;;;;;14.25;10.18;;;6.80;99.90;;;;;;4931022;28;20054;-88
2022/05/24 01:04:19;;;;;;;13.98;10.23;;;6.80;99.90;;;;;;4946357;28;20054;-89
2022/05/24 01:06:50;;;;;;;13.05;9.75;;;6.80;99.90;;;;;;4927614;29;20055;-88
2022/05/24 01:09:23;;;;;;;;;;;6.80;99.90;;;;;;4920649;29;20058;-89
2022/05/24 01:11:56;;;;;;;12.07;8.40;;;6.80;99.90;;;;;;4906377;29;19927;-89
2022/05/24 01:14:25;;;;;;;13.00;9.85;;;6.70;99.90;;;;;;4909319;29;20457;-89
2022/05/24 01:16:53;;;;;;;11.73;8.75;;;6.70;99.90;;;;;;4901507;29;20052;-89
2022/05/24 01:19:41;;;;;;;11.77;9.90;;;6.70;99.90;;;;;;4922506;29;20096;-89
2022/05/24 01:22:17;;;;;;;11.38;7.63;;;6.70;99.90;;;;;;4910663;29;20039;-89
2022/05/24 01:25:00;;;;;;;9.27;7.50;;;6.60;99.90;;;;;;4886361;29;20414;-89
2022/05/24 01:27:27;;;;;;;10.05;9.00;;;6.60;99.90;;;;;;4906557;29;20058;-89
2022/05/24 01:29:54;;;;;;;9.48;8.38;;;6.60;99.90;;;;;;4912048;29;20055;-89
2022/05/24 01:37:52;;;;;;;10.20;7.13;;;6.50;99.90;;;;;;4891101;29;20110;-88
2022/05/24 01:40:19;;;;;;;8.02;6.90;;;6.50;99.90;;;;;;4900075;29;20055;-89
2022/05/24 01:42:47;;;;;;;10.25;7.93;;;6.40;99.90;;;;;;4904809;29;20060;-88
2022/05/24 01:45:28;;;;;;;9.52;6.28;;;6.50;99.90;;;;;;4908283;29;20513;-89
2022/05/24 01:48:01;;;;;;;9.32;7.38;;;6.50;99.90;;;;;;4904141;29;20421;-89
2022/05/24 01:50:29;;;;;;;8.20;6.32;;;6.40;99.90;;;;;;4903389;29;20056;-88
2022/05/24 01:53:01;;;;;;;8.80;5.82;;;6.40;99.90;;;;;;4918185;29;20588;-88
2022/05/24 01:56:00;;;;;;;6.57;5.47;;;6.40;99.90;;;;;;4907084;29;20587;-88
2022/05/24 01:58:31;;;;;;;9.60;5.75;;;6.30;99.90;;;;;;4897761;29;20130;-88
2022/05/24 02:01:15;;;;;;;6.18;5.55;;;6.30;99.90;;;;;;4901098;29;20048;-88
2022/05/24 02:03:42;;;;;;;5.78;4.82;;;6.30;99.90;;;;;;4905167;29;20135;-88
2022/05/24 02:06:25;;;;;;;10.25;5.40;;;6.30;99.90;;;;;;4898038;29;20572;-88
2022/05/24 02:08:53;;;;;;;7.43;5.28;;;6.20;99.90;;;;;;4908186;29;20055;-88
2022/05/24 02:11:26;;;;;;;8.05;5.30;;;6.20;99.90;;;;;;4926194;28;20055;-88
2022/05/24 02:14:10;;;;;;;7.95;5.50;;;6.20;99.90;;;;;;4924655;29;20055;-89
2022/05/24 02:16:45;;;;;;;7.85;5.13;;;6.20;99.90;;;;;;4943827;28;20154;-88
2022/05/24 02:19:15;;;;;;;10.48;6.10;;;6.30;99.90;;;;;;4926015;28;20051;-88
2022/05/24 02:21:45;;;;;;;7.40;5.90;;;6.30;99.90;;;;;;4932682;29;20055;-88
2022/05/24 02:24:19;;;;;;;8.35;5.90;;;6.30;99.90;;;;;;4912070;29;20051;-89
2022/05/24 02:26:47;;;;;;;5.95;5.22;;;6.30;99.90;;;;;;4927516;28;20055;-88
2022/05/24 02:29:14;;;;;;;6.85;5.57;;;6.20;99.90;;;;;;4938109;28;20063;-88
2022/05/24 02:31:42;;;;;;;6.78;4.25;;;6.20;99.90;;;;;;4914016;28;20516;-88
2022/05/24 02:34:10;;;;;;;5.32;4.80;;;6.30;99.90;;;;;;4929336;28;20570;-88
2022/05/24 02:36:37;;;;;;;6.47;4.95;;;6.30;99.90;;;;;;4928570;29;20055;-88
2022/05/24 02:39:05;;;;;;;6.78;5.85;;;6.30;99.90;;;;;;4911789;29;20119;-88
2022/05/24 02:41:33;;;;;;;5.90;5.07;;;6.30;99.90;;;;;;4943491;28;20145;-89
2022/05/24 02:44:13;;;;;;;5.75;4.95;;;6.30;99.90;;;;;;4908740;29;20051;-89
2022/05/24 02:46:43;;;;;;;5.43;4.82;;;6.30;99.90;;;;;;4926874;29;20047;-90
2022/05/24 02:49:11;;;;;;;10.98;5.22;;;6.30;99.90;;;;;;4931958;28;20114;-89
2022/05/24 02:51:41;;;;;;;5.93;4.27;;;6.30;99.90;;;;;;4926401;28;20048;-89
2022/05/24 02:54:08;;;;;;;6.35;5.68;;;6.30;99.90;;;;;;4941768;28;20051;-89
2022/05/24 02:56:35;;;;;;;9.75;5.00;;;6.40;99.90;;;;;;4931971;29;20055;-90
2022/05/24 02:59:04;;;;;;;7.25;4.53;;;6.40;99.90;;;;;;4928075;29;20614;-87
2022/05/24 03:01:32;;;;;;;7.03;5.10;;;6.40;99.90;;;;;;4903743;28;20309;-87
2022/05/24 03:04:00;;;;;;;6.40;4.43;;;6.40;99.90;;;;;;4940652;28;20801;-87
2022/05/24 03:06:27;;;;;;;6.88;3.95;;;6.50;99.90;;;;;;4931201;29;20055;-87
2022/05/24 03:14:34;;;;;;;3.92;3.00;;;6.60;99.90;;;;;;4906909;29;20098;-87
2022/05/24 03:17:01;;;;;;;3.70;3.20;;;6.60;99.90;;;;;;4931794;29;20070;-87
2022/05/24 03:19:28;;;;;;;4.30;3.67;;;6.70;99.90;;;;;;4925269;29;20106;-87
2022/05/24 03:21:55;;;;;;;4.68;3.85;;;6.70;99.90;;;;;;4926376;28;20048;-87
2022/05/24 03:24:22;;;;;;;4.15;3.20;;;6.70;99.90;;;;;;4938776;28;20567;-88
2022/05/24 03:26:49;;;;;;;6.22;3.60;;;6.70;99.90;;;;;;4926297;29;20043;-88
2022/05/24 03:29:16;;;;;;;6.13;3.40;;;6.90;99.90;;;;;;4891524;28;20570;-87
2022/05/24 03:31:44;;;;;;;5.97;3.72;;;6.90;99.90;;;;;;4882401;29;20047;-87
2022/05/24 03:34:16;;;;;;;5.85;3.30;;;6.90;99.90;;;;;;4913878;28;20057;-87
2022/05/24 03:36:43;;;;;;;4.13;3.10;;;7.00;99.90;;;;;;4928822;29;20054;-87
2022/05/24 03:39:11;;;;;;;8.20;4.43;;;7.00;99.90;;;;;;4914046;28;20492;-87
2022/05/24 03:41:43;;;;;;;3.33;2.65;;;7.10;99.90;;;;;;4927321;29;20235;-87
2022/05/24 03:44:11;;;;;;;9.98;3.97;;;7.10;99.90;;;;;;4922543;28;20053;-87
2022/05/24 03:46:40;;;;;;;5.88;2.83;;;7.20;99.90;;;;;;4893386;29;20080;-88
2022/05/24 03:49:07;;;;;;;5.13;2.53;;;7.20;99.90;;;;;;4909236;29;20059;-87
2022/05/24 03:51:34;;;;;;;5.32;2.28;;;7.30;99.90;;;;;;4933134;28;20150;-87
2022/05/24 03:54:01;;;;;;;4.40;3.45;;;7.30;99.90;;;;;;4908984;29;20052;-87
2022/05/24 03:56:29;;;;;;;3.88;3.15;;;7.40;99.90;;;;;;4928661;28;20048;-87
2022/05/24 03:58:56;;;;;;;3.33;3.03;;;7.50;99.90;;;;;;4923411;29;20054;-87
2022/05/24 04:01:24;;;;;;;6.25;3.17;;;7.50;99.90;;;;;;4916650;28;20063;-87
2022/05/24 04:03:52;;;;;;;5.03;3.20;;;7.70;99.90;;;;;;4903223;29;20043;-87
2022/05/24 04:06:23;;;;;;;3.53;2.88;;;7.70;99.90;;;;;;4945713;28;20083;-87
2022/05/24 04:08:50;;;;;;;4.80;2.33;;;7.80;99.90;;;;;;4920716;29;20576;-87
2022/05/24 04:11:18;;;;;;;3.85;3.03;;;7.80;99.90;;;;;;4933770;28;20047;-87
2022/05/24 04:13:47;;;;;;;5.63;2.88;;;7.90;99.90;;;;;;4906323;29;20102;-87
2022/05/24 04:16:16;;;;;;;6.35;3.35;;;8.00;99.90;;;;;;4920382;29;20048;-87
2022/05/24 04:18:44;;;;;;;7.93;3.28;;;8.10;99.90;;;;;;4919826;29;20051;-87
2022/05/24 04:21:24;;;;;;;3.50;2.72;;;8.10;99.90;;;;;;4889441;28;20044;-87
2022/05/24 04:23:53;;;;;;;8.70;2.83;;;8.10;99.90;;;;;;4925050;29;20051;-88
2022/05/24 04:26:21;;;;;;;6.28;2.67;;;8.20;99.90;;;;;;4895481;29;20135;-87
2022/05/24 04:28:48;;;;;;;6.18;4.68;;;8.30;99.90;;;;;;4917307;29;20406;-87
2022/05/24 04:31:15;;;;;;;4.80;2.50;;;8.40;99.90;;;;;;4935360;29;20148;-87
2022/05/24 04:33:42;;;;;;;5.43;2.65;;;8.50;99.90;;;;;;4936303;29;20118;-87
2022/05/24 04:36:09;;;;;;;7.97;2.97;;;8.50;99.90;;;;;;4946397;28;20546;-87
2022/05/24 04:38:38;;;;;;;6.47;2.40;;;8.60;99.90;;;;;;4906950;28;20050;-87
2022/05/24 04:43:54;;;;;;;4.30;2.53;;;8.70;99.90;;;;;;4898832;28;20586;-87
2022/05/24 04:46:21;;;;;;;3.92;2.95;;;8.80;99.90;;;;;;4921822;28;20673;-87
2022/05/24 04:48:49;;;;;;;4.00;2.65;;;8.90;99.90;;;;;;4913484;28;20142;-87
2022/05/24 04:51:18;;;;;;;7.05;2.60;;;9.00;99.90;;;;;;4928817;28;20055;-87
2022/05/24 04:53:45;;;;;;;3.13;2.72;;;9.00;99.90;;;;;;4917559;28;20456;-88
2022/05/24 04:56:12;;;;;;;4.53;2.88;;;9.10;99.90;;;;;;4933567;28;20560;-87
2022/05/24 04:58:41;;;;;;;5.47;2.83;;;9.30;99.90;;;;;;4910774;28;20119;-87
2022/05/24 05:01:10;;;;;;;9.38;2.85;;;9.40;99.90;;;;;;4893475;29;20243;-87
2022/05/24 05:03:39;;;;;;;4.22;2.65;;;9.50;99.90;;;;;;4911054;28;20659;-87
2022/05/24 05:06:06;;;;;;;4.53;2.72;;;9.60;99.90;;;;;;4929339;28;20057;-87
2022/05/24 05:08:34;;;;;;;3.40;2.65;;;9.70;99.90;;;;;;4920291;28;20060;-87
2022/05/24 05:11:10;;;;;;;5.53;2.75;;;9.70;99.90;;;;;;4910613;28;20048;-87
2022/05/24 05:13:37;;;;;;;6.35;3.38;;;9.80;99.90;;;;;;4928678;28;20055;-86
2022/05/24 05:16:04;;;;;;;7.05;2.60;;;9.90;99.90;;;;;;4902583;28;20520;-86
2022/05/24 05:18:31;;;;;;;6.95;2.95;;;10.00;99.90;;;;;;4923691;28;20583;-87
2022/05/24 05:21:00;;;;;;;5.47;3.17;;;10.10;99.90;;;;;;4933920;28;20126;-87
2022/05/24 05:23:26;;;;;;;6.20;3.55;;;10.20;99.90;;;;;;4936685;28;20070;-87
2022/05/24 05:25:55;;;;;;;3.65;2.70;;;10.20;99.90;;;;;;4919441;29;20050;-86
2022/05/24 05:28:22;;;;;;;5.38;2.47;;;10.30;99.90;;;;;;4940274;28;20106;-86
2022/05/24 05:33:35;;;;;;;7.43;2.95;;;10.50;99.90;;;;;;4918064;28;20051;-87
2022/05/24 05:36:03;;;;;;;5.50;2.60;;;10.60;99.90;;;;;;4943117;28;20047;-86
2022/05/24 05:38:31;;;;;;;4.10;2.50;;;10.70;99.90;;;;;;4942570;28;20441;-84
2022/05/24 05:40:58;;;;;;;3.92;3.22;;;10.80;99.90;;;;;;4936097;28;20497;-86
2022/05/24 05:43:25;;;;;;;3.47;2.63;;;10.90;99.90;;;;;;4937753;28;20583;-86
2022/05/24 05:45:56;;;;;;;5.45;2.90;;;11.00;99.90;;;;;;4905042;28;20039;-86
2022/05/24 05:48:23;;;;;;;5.80;2.70;;;11.10;99.90;;;;;;4936772;28;20590;-86
2022/05/24 05:50:50;;;;;;;2.97;2.63;;;11.20;99.90;;;;;;4922452;29;20082;-86
2022/05/24 05:53:19;;;;;;;5.57;2.40;;;11.40;99.90;;;;;;4918713;28;20061;-86
2022/05/24 05:55:46;;;;;;;5.38;3.50;;;11.50;99.90;;;;;;4915181;29;20083;-86
2022/05/24 05:58:13;;;;;;;4.43;3.20;;;11.50;99.90;;;;;;4937983;28;20052;-86
2022/05/24 06:00:41;;;;;;;2.83;2.25;;;11.60;99.90;;;;;;4916496;29;20047;-86
2022/05/24 06:03:11;;;;;;;5.40;2.75;;;11.80;99.90;;;;;;4911076;29;20114;-86
2022/05/24 06:05:44;;;;;;;3.55;2.70;;;11.90;99.90;;;;;;4925585;29;20567;-86
2022/05/24 06:08:13;;;;;;;6.47;2.83;;;12.00;99.90;;;;;;4934666;28;20079;-86
2022/05/24 06:10:47;;;;;;;2.13;1.90;;;12.10;99.90;;;;;;4923345;29;20057;-86
2022/05/24 06:13:14;;;;;;;4.47;3.03;;;12.20;99.90;;;;;;4939590;28;20063;-86
2022/05/24 06:15:47;;;;;;;5.22;2.83;;;12.30;99.90;;;;;;4904496;29;20571;-86
2022/05/24 06:18:15;;;;;;;6.10;5.35;;;12.40;99.90;;;;;;4923214;29;20110;-90
2022/05/24 06:20:43;;;;;;;3.00;2.35;;;12.50;99.90;;;;;;4921581;29;20054;-89
2022/05/24 06:23:09;;;;;;;3.10;2.53;;;12.60;99.90;;;;;;4921231;28;20043;-88
2022/05/24 06:25:39;;;;;;;2.72;2.38;;;12.70;99.90;;;;;;4947420;28;20044;-89
2022/05/24 06:28:07;;;;;;;3.08;2.65;;;12.80;99.90;;;;;;4913412;28;20083;-89
2022/05/24 06:30:33;;;;;;;3.42;2.60;;;12.90;99.90;;;;;;4943814;28;20052;-89
2022/05/24 06:33:00;;;;;;;3.58;2.47;;;13.00;99.90;;;;;;4927598;29;20060;-89
2022/05/24 06:35:27;;;;;;;3.65;2.53;;;13.00;99.90;;;;;;4921369;29;20067;-88
2022/05/24 06:37:54;;;;;;;2.80;2.60;;;13.20;99.90;;;;;;4940939;28;20051;-89
2022/05/24 06:40:22;;;;;;;5.05;2.63;;;13.30;99.90;;;;;;4918141;29;20078;-89
2022/05/24 06:42:48;;;;;;;3.97;3.22;;;13.50;99.90;;;;;;4924528;28;20666;-88
2022/05/24 06:45:16;;;;;;;2.60;2.30;;;13.60;99.90;;;;;;4942948;28;20043;-89
2022/05/24 06:47:43;;;;;;;2.72;2.53;;;13.70;99.90;;;;;;4927998;29;20055;-88
2022/05/24 06:50:12;;;;;;;4.88;3.08;;;13.80;99.90;;;;;;4919386;29;20071;-89
2022/05/24 06:52:41;;;;;;;2.50;2.28;;;14.00;99.90;;;;;;4921634;29;20062;-89
2022/05/24 06:55:10;;;;;;;5.53;2.63;;;14.10;99.90;;;;;;4930501;28;20505;-88
2022/05/24 06:57:37;;;;;;;4.07;2.30;;;14.20;99.90;;;;;;4939443;28;20832;-88
2022/05/24 07:03:07;;;;;;;4.78;2.75;;;14.40;99.90;;;;;;4940774;28;20054;-90
2022/05/24 07:05:34;;;;;;;4.30;2.95;;;14.60;99.90;;;;;;4917392;28;20059;-89
2022/05/24 07:08:02;;;;;;;6.60;2.58;;;14.70;99.90;;;;;;4937881;28;20115;-89
2022/05/24 07:10:30;;;;;;;3.72;2.47;;;14.90;99.90;;;;;;4912712;28;20054;-90
2022/05/24 07:13:04;;;;;;;3.33;2.08;;;15.00;99.90;;;;;;4941224;28;20059;-90
2022/05/24 07:15:31;;;;;;;5.40;3.35;;;15.00;99.90;;;;;;4937307;28;20121;-90
2022/05/24 07:17:59;;;;;;;5.47;2.40;;;15.30;99.90;;;;;;4923479;28;20515;-89
2022/05/24 07:20:33;;;;;;;3.45;2.45;;;15.40;99.90;;;;;;4919861;28;20055;-89
2022/05/24 07:23:09;;;;;;;2.55;2.17;;;15.40;99.90;;;;;;4924820;28;20051;-90
2022/05/24 07:25:37;;;;;;;3.75;3.40;;;15.50;99.90;;;;;;4925311;28;20070;-90
2022/05/24 07:28:05;;;;;;;3.42;1.85;;;15.70;99.90;;;;;;4921057;29;20055;-89
2022/05/24 07:30:32;;;;;;;3.78;1.92;;;15.80;99.90;;;;;;4921634;29;20047;-89
2022/05/24 07:33:00;;;;;;;2.47;2.00;;;15.90;99.90;;;;;;4927230;29;20047;-88
2022/05/24 07:35:27;;;;;;;3.60;3.03;;;16.00;99.90;;;;;;4900915;29;20043;-89
2022/05/24 07:37:56;;;;;;;3.55;2.47;;;16.00;99.90;;;;;;4925799;28;20381;-89
2022/05/24 07:46:00;;;;;;;3.33;2.20;;;16.30;99.90;;;;;;4919741;28;20048;-89
2022/05/24 07:48:29;;;;;;;3.90;2.67;;;16.40;99.90;;;;;;4942907;28;20688;-90
2022/05/24 07:50:57;;;;;;;2.50;2.30;;;16.50;99.90;;;;;;4938298;28;20055;-89
2022/05/24 07:53:24;;;;;;;3.90;2.15;;;16.60;99.90;;;;;;4914629;28;20048;-90
2022/05/24 07:55:53;;;;;;;3.22;2.40;;;16.70;99.90;;;;;;4923090;29;20043;-89
2022/05/24 07:58:20;;;;;;;2.55;2.25;;;16.80;99.90;;;;;;4913267;28;20593;-91
2022/05/24 08:00:48;;;;;;;7.28;2.67;;;16.90;99.90;;;;;;4936903;28;20572;-90
2022/05/24 08:03:15;;;;;;;2.58;2.00;;;17.00;99.90;;;;;;4911795;29;20039;-89
2022/05/24 08:05:43;;;;;;;3.45;2.22;;;17.00;99.90;;;;;;4939255;28;20047;-91
2022/05/24 08:08:10;;;;;;;4.50;2.63;;;17.10;99.90;;;;;;4918536;29;20044;-90
2022/05/24 08:10:38;;;;;;;4.90;2.38;;;17.20;99.90;;;;;;4940889;28;20047;-90
2022/05/24 08:13:08;;;;;;;4.53;2.83;;;17.20;99.90;;;;;;4926859;29;20818;-89
2022/05/24 08:15:35;;;;;;;4.20;2.10;;;17.40;99.90;;;;;;4924300;28;20051;-90
2022/05/24 08:18:03;;;;;;;4.00;1.85;;;17.50;99.90;;;;;;4924557;29;20100;-90
2022/05/24 08:20:31;;;;;;;2.88;2.50;;;17.60;99.90;;;;;;4942608;28;20069;-90
2022/05/24 08:22:59;;;;;;;6.43;2.70;;;17.60;99.90;;;;;;4938746;28;20051;-90
2022/05/24 08:25:28;;;;;;;4.05;2.78;;;17.70;99.90;;;;;;4940161;28;20051;-89
2022/05/24 08:27:55;;;;;;;3.17;2.08;;;17.90;99.90;;;;;;4939920;28;20039;-90
2022/05/24 08:30:22;;;;;;;7.35;2.90;;;18.00;99.90;;;;;;4924771;28;20082;-92
2022/05/24 08:32:50;;;;;;;7.47;4.07;;;18.00;99.90;;;;;;4924147;28;20042;-91
2022/05/24 08:35:19;;;;;;;4.18;2.75;;;17.90;99.90;;;;;;4924060;28;20040;-91
2022/05/24 08:37:48;;;;;;;2.10;1.83;;;17.90;99.90;;;;;;4907386;28;20400;-90
2022/05/24 08:40:17;;;;;;;3.22;1.80;;;18.10;99.90;;;;;;4906188;29;20035;-89
2022/05/24 08:43:11;;;;;;;3.30;2.33;;;18.10;99.90;;;;;;4916795;28;20081;-90
2022/05/24 08:48:46;;;;;;;3.60;2.38;;;18.30;99.90;;;;;;4936381;28;20436;-89
2022/05/24 08:51:30;;;;;;;4.00;1.77;;;18.30;99.20;;;;;;4925260;28;20081;-89
2022/05/24 08:54:04;;;;;;;2.47;2.03;;;18.40;99.30;;;;;;4933529;28;20051;-90
2022/05/24 08:56:36;;;;;;;5.22;2.97;;;18.50;99.40;;;;;;4931313;28;20400;-90
2022/05/24 08:59:33;;;;;;;2.47;1.88;;;18.50;99.30;;;;;;4922166;29;20071;-91
2022/05/24 09:02:00;;;;;;;9.30;2.53;;;18.60;99.00;;;;;;4938950;28;20053;-91
2022/05/24 09:04:29;;;;;;;5.07;2.75;;;18.70;99.00;;;;;;4927220;29;20067;-88
2022/05/24 09:07:07;;;;;;;5.70;3.35;;;18.80;99.20;;;;;;4909578;28;20040;-91
2022/05/24 09:09:52;;;;;;;3.97;1.88;;;18.80;98.90;;;;;;4926300;28;20071;-91
2022/05/24 09:12:33;;;;;;;3.42;2.75;;;18.90;99.30;;;;;;4924657;28;20058;-91
2022/05/24 09:15:12;;;;;;;;;;;19.00;99.50;;;;;;4929004;29;20051;-90
2022/05/24 09:17:53;;;;;;;;;;;19.10;98.40;;;;;;4920262;28;20372;-90
2022/05/24 09:20:41;;;;;;;3.58;2.80;;;19.20;98.70;;;;;;4916889;28;19994;-91
2022/05/24 09:23:15;;;;;;;4.97;3.15;;;19.10;98.30;;;;;;4938525;28;20051;-90
2022/05/24 09:25:53;;;;;;;3.95;2.38;;;19.10;98.20;;;;;;4914813;29;20597;-90
2022/05/24 09:28:54;;;;;;;2.42;2.00;;;19.20;98.70;;;;;;4911393;29;20044;-89
2022/05/24 09:31:46;;;;;;;2.03;1.83;;;19.30;98.90;;;;;;4871250;28;20059;-88
2022/05/24 09:34:28;;;;;;;3.28;2.70;;;19.40;98.40;;;;;;4891641;28;20110;-91
2022/05/24 09:37:00;;;;;;;5.60;2.25;;;19.30;98.70;;;;;;4909034;29;20062;-91
2022/05/24 09:39:30;;;;;;;;;;;19.30;98.40;;;;;;4919697;28;20055;-89
2022/05/24 09:42:00;;;;;;;7.07;2.88;;;19.30;99.20;;;;;;4921722;28;19961;-89
2022/05/24 09:44:29;;;;;;;;;;;19.30;99.10;;;;;;4880833;29;20554;-90
2022/05/24 09:46:57;;;;;;;2.70;2.45;;;19.40;99.40;;;;;;4913234;29;19994;-89
2022/05/24 09:49:44;;;;;;;3.45;3.15;;;19.50;99.70;;;;;;4900807;28;20126;-90
2022/05/24 09:52:14;;;;;;;3.97;2.63;;;19.60;99.00;;;;;;4879643;28;20411;-90
2022/05/24 09:54:55;;;;;;;;;;;19.80;99.00;;;;;;4933123;28;20062;-90
2022/05/24 09:57:32;;;;;;;3.20;2.28;;;19.80;98.60;;;;;;4901747;28;20261;-89
2022/05/24 10:00:23;;;;;;;2.40;2.17;;;19.90;98.40;;;;;;4920891;29;20063;-90
2022/05/24 10:03:05;;;;;;;2.95;2.60;;;19.90;98.90;;;;;;4937770;28;20051;-90
2022/05/24 10:05:33;;;;;;;4.53;3.05;;;20.10;98.70;;;;;;4918749;28;20803;-90
2022/05/24 10:08:04;;;;;;;3.33;3.03;;;20.20;98.10;;;;;;4908307;28;20130;-90
2022/05/24 10:10:36;;;;;;;3.20;2.20;;;20.10;98.60;;;;;;4918321;29;20055;-89
2022/05/24 10:13:40;;;;;;;3.72;2.33;;;20.10;98.40;;;;;;4933387;28;20477;-88
2022/05/24 10:16:29;;;;;;;4.25;2.60;;;20.00;98.30;;;;;;4893780;28;20047;-90
2022/05/24 10:19:11;;;;;;;3.13;2.55;;;20.00;98.10;;;;;;4910441;29;20509;-90
2022/05/24 10:21:45;;;;;;;4.95;2.67;;;20.20;98.30;;;;;;4904609;29;20055;-91
2022/05/24 10:24:37;;;;;;;4.00;3.05;;;20.30;97.60;;;;;;4919375;29;20151;-91
2022/05/24 10:27:25;;;;;;;2.45;2.00;;;20.30;97.30;;;;;;4903338;29;20074;-90
2022/05/24 10:30:06;;;;;;;3.80;2.40;;;20.40;97.90;;;;;;4930021;28;20087;-91
2022/05/24 10:38:57;;;;;;;2.70;2.45;;;20.30;98.10;;;;;;4934235;28;20078;-90
2022/05/24 10:41:33;;;;;;;4.07;2.38;;;20.60;97.60;;;;;;4933693;28;20047;-91
2022/05/24 10:44:19;;;;;;;2.72;2.47;;;20.70;98.30;;;;;;4922223;28;20527;-91
2022/05/24 10:47:01;;;;;;;2.85;2.20;;;20.80;97.30;;;;;;4940147;28;20583;-91
2022/05/24 10:49:42;;;;;;;4.28;3.38;;;20.90;96.70;;;;;;4924880;28;20134;-92
2022/05/24 10:52:34;;;;;;;4.20;2.20;;;20.80;95.90;;;;;;4939259;28;20048;-90
2022/05/24 10:55:19;;;;;;;3.15;2.13;;;20.70;96.20;;;;;;4920296;28;20050;-90
2022/05/24 10:57:54;;;;;;;2.03;1.80;;;20.70;96.80;;;;;;4919629;29;20043;-90
2022/05/24 11:00:29;;;;;;;2.67;2.22;;;20.50;96.50;;;;;;4937955;28;20107;-90
2022/05/24 11:03:02;;;;;;;3.50;2.67;;;20.60;97.30;;;;;;4906156;29;20406;-90
2022/05/24 11:05:48;;;;;;;4.10;2.80;;;20.70;96.20;;;;;;4934411;28;20698;-88
2022/05/24 11:08:47;;;;;;;6.88;2.60;;;20.80;97.20;;;;;;4936107;29;20055;-91
2022/05/24 11:11:24;;;;;;;3.15;2.40;;;20.80;96.90;;;;;;4904538;29;20306;-90
2022/05/24 11:13:55;;;;;;;3.00;2.53;;;20.90;96.10;;;;;;4904017;29;20554;-90
2022/05/24 11:16:41;;;;;;;3.50;2.63;;;21.00;96.10;;;;;;4917727;29;20579;-90
2022/05/24 11:19:13;;;;;;;6.13;2.83;;;21.00;95.50;;;;;;4917069;29;20063;-90
2022/05/24 11:22:14;;;;;;;5.65;2.90;;;21.10;95.80;;;;;;4904247;29;20103;-90
2022/05/24 11:24:47;;;;;;;5.28;2.53;;;21.30;96.30;;;;;;4904196;29;20536;-90
2022/05/24 11:27:17;;;;;;;5.47;2.95;;;21.60;95.90;;;;;;4889610;29;20071;-91
2022/05/24 11:29:56;;;;;;;3.28;3.05;;;21.60;94.80;;;;;;4911212;29;20055;-90
2022/05/24 11:32:36;;;;;;;5.00;2.40;;;21.80;95.40;;;;;;4886130;29;20052;-90
2022/05/24 11:35:06;;;;;;;3.40;2.00;;;21.90;94.50;;;;;;4897442;29;20386;-90
2022/05/24 11:37:40;;;;;;;3.60;2.80;;;21.70;94.80;;;;;;4881950;29;20051;-90
2022/05/24 11:40:30;;;;;;;2.42;1.98;;;21.80;94.90;;;;;;4904616;29;20525;-90
2022/05/24 11:43:03;;;;;;;2.80;2.35;;;22.00;95.20;;;;;;4914092;29;20052;-90
2022/05/24 11:45:34;;;;;;;2.75;2.38;;;22.20;96.80;;;;;;4915081;29;22686;-92
2022/05/24 11:48:17;;;;;;;3.05;2.22;;;22.10;94.70;;;;;;4915093;29;20231;-91
2022/05/24 11:50:51;;;;;;;4.00;2.92;;;22.00;94.10;;;;;;4920871;29;20051;-90
2022/05/24 11:53:19;;;;;;;6.53;3.63;;;22.10;94.30;;;;;;4902601;29;20059;-90
2022/05/24 11:55:48;;;;;;;4.78;2.28;;;22.10;92.80;;;;;;4918297;29;20075;-90
2022/05/24 11:58:21;;;;;;;4.70;2.78;;;21.80;93.40;;;;;;4924413;29;20133;-91
2022/05/24 12:00:57;;;;;;;6.05;2.58;;;21.80;94.40;;;;;;4926169;29;20052;-90
2022/05/24 12:09:26;;;;;;;4.38;3.03;;;21.80;94.40;;;;;;4916422;29;20074;-91
2022/05/24 12:12:17;;;;;;;6.77;2.27;;;21.70;93.80;;;;;;4939799;28;20069;-91
2022/05/24 12:14:44;;;;;;;3.33;2.20;;;21.90;94.70;;;;;;4924104;29;20549;-91
2022/05/24 12:17:15;;;;;;;8.32;3.90;;;22.10;94.20;;;;;;4935091;28;20043;-90
2022/05/24 12:19:48;;;;;;;5.05;2.92;;;22.00;93.00;;;;;;4924636;28;20050;-91
2022/05/24 12:22:18;;;;;;;5.85;2.45;;;21.90;92.70;;;;;;4937988;28;20060;-90
2022/05/24 12:24:51;;;;;;;3.15;2.92;;;21.60;92.30;;;;;;4925990;29;20510;-89
2022/05/24 12:27:46;;;;;;;7.65;2.95;;;21.60;92.40;;;;;;4939714;28;20163;-89
2022/05/24 12:30:31;;;;;;;4.45;2.20;;;21.50;92.60;;;;;;4940028;28;20095;-91
2022/05/24 12:33:11;;;;;;;5.53;2.50;;;21.60;95.80;;;;;;4901303;28;20521;-90
2022/05/24 12:35:47;;;;;;;6.40;2.33;;;22.00;93.60;;;;;;4922894;28;20054;-91
2022/05/24 12:38:19;;;;;;;3.42;3.13;;;22.00;94.30;;;;;;4935135;28;20047;-89
2022/05/24 12:40:46;;;;;;;4.13;2.65;;;22.30;93.90;;;;;;4921872;28;20055;-90
2022/05/24 12:43:16;;;;;;;4.85;2.58;;;22.30;93.10;;;;;;4912387;28;20051;-90
2022/05/24 12:45:47;;;;;;;4.45;2.60;;;22.50;93.00;;;;;;4912680;28;20044;-90
2022/05/24 12:48:17;;;;;;;5.13;2.70;;;22.40;92.30;;;;;;4921698;28;20055;-91
2022/05/24 12:50:46;;;;;;;4.00;2.55;;;22.40;92.60;;;;;;4907156;29;20145;-90
2022/05/24 12:53:21;;;;;;;7.68;2.80;;;22.40;92.90;;;;;;4939927;28;20059;-91
2022/05/24 12:56:02;;;;;;;3.38;2.05;;;22.30;91.90;;;;;;4940110;28;20043;-90
2022/05/24 12:58:31;;;;;;;;;;;22.30;91.30;;;;;;4921358;28;20098;-91
2022/05/24 13:01:20;;;;;;;5.20;3.35;;;22.40;91.40;;;;;;4910658;29;19923;-91
2022/05/24 13:03:58;;;;;;;7.03;3.85;;;22.30;91.90;;;;;;4939536;28;20047;-91
2022/05/24 13:06:38;;;;;;;4.10;2.45;;;22.10;91.70;;;;;;4918254;29;20055;-90
2022/05/24 13:09:28;;;;;;;3.40;1.90;;;21.90;91.20;;;;;;4909268;28;20083;-91
2022/05/24 13:12:04;;;;;;;4.15;2.15;;;22.10;91.60;;;;;;4933920;28;20100;-89
2022/05/24 13:14:41;;;;;;;4.00;2.00;;;22.20;91.00;;;;;;4925064;29;20059;-91
2022/05/24 13:17:10;;;;;;;2.17;1.92;;;22.10;90.70;;;;;;4920027;29;20539;-92
2022/05/24 13:19:59;;;;;;;2.08;1.75;;;22.30;90.50;;;;;;4920190;29;20062;-93
2022/05/24 13:22:41;;;;;;;4.95;2.05;;;22.30;90.10;;;;;;4915240;28;20059;-91
2022/05/24 13:25:16;;;;;;;4.18;2.20;;;22.20;90.00;;;;;;4924236;29;20198;-91
2022/05/24 13:27:59;;;;;;;5.63;2.72;;;22.30;90.80;;;;;;4911801;28;20042;-90
2022/05/24 13:34:23;;;;;;;6.32;2.85;;;22.20;91.30;;;;;;4922342;28;20107;-90
2022/05/24 13:37:11;;;;;;;3.50;3.15;;;22.20;89.10;;;;;;4921102;28;20319;-92
2022/05/24 13:39:47;;;;;;;4.15;2.53;;;22.20;89.70;;;;;;4915694;28;20404;-88
2022/05/24 13:42:25;;;;;;;2.75;2.47;;;22.10;89.00;;;;;;4934199;28;20043;-90
2022/05/24 13:45:11;;;;;;;7.80;2.92;;;22.10;90.20;;;;;;4911634;29;20049;-91
2022/05/24 13:47:56;;;;;;;3.45;2.10;;;22.10;88.80;;;;;;4919823;28;20683;-91
2022/05/24 13:50:33;;;;;;;3.30;2.28;;;22.20;90.20;;;;;;4903811;29;20056;-91
2022/05/24 13:53:04;;;;;;;2.53;2.17;;;22.20;89.60;;;;;;4908108;29;20071;-92
2022/05/24 13:55:38;;;;;;;2.30;2.05;;;22.20;88.70;;;;;;4925586;28;20478;-92
2022/05/24 13:58:34;;;;;;;2.83;2.13;;;22.00;89.60;;;;;;4911217;29;20102;-91
2022/05/24 14:01:04;;;;;;;2.63;2.38;;;22.30;87.80;;;;;;4921623;29;20051;-91
2022/05/24 14:04:05;;;;;;;1.60;1.50;;;22.40;87.90;;;;;;4924027;28;20169;-91
2022/05/24 14:06:35;;;;;;;;;;;22.40;88.40;;;;;;4936030;28;20043;-91